sensor_id;sensor_type;location;lat;lon;timestamp;pressure;altitude;pressure_sealevel;temperature;humidity
51528;BME280;37612;51.768;21.590;2022-12-07T00:02:36;99301.44;;;1.45;100.00
51528;BME280;37612;51.768;21.590;2022-12-07T00:06:40;99298.24;;;1.47;100.00
51528;BME280;37612;51.768;21.590;2022-12-07T00:10:42;99298.08;;;1.51;100.00
51528;BME280;37612;51.768;21.590;2022-12-07T00:14:43;99298.14;;;1.54;100.00
51528;BME280;37612;51.768;21.590;2022-12-07T00:18:44;99304.47;;;1.50;100.00
51528;BME280;37612;51.768;21.590;2022-12-07T00:22:46;99306.22;;;1.48;100.00
51528;BME280;37612;51.768;21.590;2022-12-07T00:26:47;99309.97;;;1.48;100.00
51528;BME280;37612;51.768;21.590;2022-12-07T00:30:48;99309.70;;;1.47;100.00
51528;BME280;37612;51.768;21.590;2022-12-07T00:34:49;99307.15;;;1.46;100.00
51528;BME280;37612;51.768;21.590;2022-12-07T00:38:51;99304.67;;;1.46;100.00
51528;BME280;37612;51.768;21.590;2022-12-07T00:42:52;99303.83;;;1.49;100.00
51528;BME280;37612;51.768;21.590;2022-12-07T00:46:53;99300.50;;;1.52;100.00
51528;BME280;37612;51.768;21.590;2022-12-07T00:50:56;99299.75;;;1.54;100.00
51528;BME280;37612;51.768;21.590;2022-12-07T00:54:57;99294.58;;;1.53;100.00
51528;BME280;37612;51.768;21.590;2022-12-07T00:59:03;99293.84;;;1.55;100.00
51528;BME280;37612;51.768;21.590;2022-12-07T01:03:06;99290.95;;;1.59;100.00
51528;BME280;37612;51.768;21.590;2022-12-07T01:07:08;99289.69;;;1.61;100.00
51528;BME280;37612;51.768;21.590;2022-12-07T01:11:12;99288.36;;;1.59;100.00
51528;BME280;37612;51.768;21.590;2022-12-07T01:15:14;99283.44;;;1.56;100.00
51528;BME280;37612;51.768;21.590;2022-12-07T01:19:15;99282.05;;;1.57;100.00
51528;BME280;37612;51.768;21.590;2022-12-07T01:23:16;99281.83;;;1.57;100.00
51528;BME280;37612;51.768;21.590;2022-12-07T01:27:17;99280.30;;;1.51;100.00
51528;BME280;37612;51.768;21.590;2022-12-07T01:31:21;99281.23;;;1.51;100.00
51528;BME280;37612;51.768;21.590;2022-12-07T01:35:23;99279.24;;;1.52;100.00
51528;BME280;37612;51.768;21.590;2022-12-07T01:39:24;99281.05;;;1.48;100.00
51528;BME280;37612;51.768;21.590;2022-12-07T01:43:27;99279.44;;;1.42;100.00
51528;BME280;37612;51.768;21.590;2022-12-07T01:47:28;99277.06;;;1.40;100.00
51528;BME280;37612;51.768;21.590;2022-12-07T01:51:29;99275.70;;;1.42;100.00
51528;BME280;37612;51.768;21.590;2022-12-07T01:55:31;99272.64;;;1.40;100.00
51528;BME280;37612;51.768;21.590;2022-12-07T01:59:33;99275.05;;;1.35;100.00
51528;BME280;37612;51.768;21.590;2022-12-07T02:03:43;99274.79;;;1.35;100.00
51528;BME280;37612;51.768;21.590;2022-12-07T02:07:47;99275.28;;;1.35;100.00
51528;BME280;37612;51.768;21.590;2022-12-07T02:11:49;99275.89;;;1.32;100.00
51528;BME280;37612;51.768;21.590;2022-12-07T02:20:17;99269.40;;;1.26;100.00
51528;BME280;37612;51.768;21.590;2022-12-07T02:24:24;99270.77;;;1.26;100.00
51528;BME280;37612;51.768;21.590;2022-12-07T02:32:59;99271.28;;;1.17;100.00
51528;BME280;37612;51.768;21.590;2022-12-07T02:37:08;99266.89;;;1.13;100.00
51528;BME280;37612;51.768;21.590;2022-12-07T02:41:42;99265.93;;;1.11;100.00
51528;BME280;37612;51.768;21.590;2022-12-07T02:45:45;99262.02;;;1.05;100.00
51528;BME280;37612;51.768;21.590;2022-12-07T02:49:49;99261.08;;;0.98;100.00
51528;BME280;37612;51.768;21.590;2022-12-07T02:53:51;99258.17;;;0.93;100.00
51528;BME280;37612;51.768;21.590;2022-12-07T02:58:12;99256.34;;;0.93;100.00
51528;BME280;37612;51.768;21.590;2022-12-07T03:06:50;99257.14;;;0.80;100.00
51528;BME280;37612;51.768;21.590;2022-12-07T03:10:58;99254.92;;;0.77;100.00
51528;BME280;37612;51.768;21.590;2022-12-07T03:15:12;99249.83;;;0.77;100.00
51528;BME280;37612;51.768;21.590;2022-12-07T03:19:17;99246.02;;;0.75;100.00
51528;BME280;37612;51.768;21.590;2022-12-07T03:23:20;99243.85;;;0.72;100.00
51528;BME280;37612;51.768;21.590;2022-12-07T03:27:25;99241.18;;;0.72;100.00
51528;BME280;37612;51.768;21.590;2022-12-07T03:31:37;99233.14;;;0.71;100.00
51528;BME280;37612;51.768;21.590;2022-12-07T03:35:44;99235.81;;;0.69;100.00
51528;BME280;37612;51.768;21.590;2022-12-07T03:40:13;99233.77;;;0.65;100.00
51528;BME280;37612;51.768;21.590;2022-12-07T03:44:17;99228.11;;;0.63;100.00
51528;BME280;37612;51.768;21.590;2022-12-07T03:48:26;99232.10;;;0.67;100.00
51528;BME280;37612;51.768;21.590;2022-12-07T03:56:39;99231.63;;;0.65;100.00
51528;BME280;37612;51.768;21.590;2022-12-07T04:00:42;99227.77;;;0.68;100.00
51528;BME280;37612;51.768;21.590;2022-12-07T04:04:43;99222.81;;;0.71;100.00
51528;BME280;37612;51.768;21.590;2022-12-07T04:08:44;99216.98;;;0.71;100.00
51528;BME280;37612;51.768;21.590;2022-12-07T04:12:46;99222.39;;;0.70;100.00
51528;BME280;37612;51.768;21.590;2022-12-07T04:16:52;99214.15;;;0.71;100.00
51528;BME280;37612;51.768;21.590;2022-12-07T04:20:54;99212.40;;;0.75;100.00
51528;BME280;37612;51.768;21.590;2022-12-07T04:24:55;99211.95;;;0.76;100.00
51528;BME280;37612;51.768;21.590;2022-12-07T04:28:56;99211.67;;;0.74;100.00
51528;BME280;37612;51.768;21.590;2022-12-07T04:32:57;99205.73;;;0.73;100.00
51528;BME280;37612;51.768;21.590;2022-12-07T04:36:58;99205.13;;;0.72;100.00
51528;BME280;37612;51.768;21.590;2022-12-07T04:41:05;99201.02;;;0.70;100.00
51528;BME280;37612;51.768;21.590;2022-12-07T04:45:07;99200.59;;;0.64;100.00
51528;BME280;37612;51.768;21.590;2022-12-07T04:49:09;99204.92;;;0.64;100.00
51528;BME280;37612;51.768;21.590;2022-12-07T04:53:10;99206.25;;;0.65;100.00
51528;BME280;37612;51.768;21.590;2022-12-07T04:57:11;99203.05;;;0.64;100.00
51528;BME280;37612;51.768;21.590;2022-12-07T05:01:14;99198.61;;;0.61;100.00
51528;BME280;37612;51.768;21.590;2022-12-07T05:05:16;99194.95;;;0.59;100.00
51528;BME280;37612;51.768;21.590;2022-12-07T05:09:17;99197.32;;;0.61;100.00
51528;BME280;37612;51.768;21.590;2022-12-07T05:13:18;99198.70;;;0.61;100.00
51528;BME280;37612;51.768;21.590;2022-12-07T05:17:19;99194.22;;;0.60;100.00
51528;BME280;37612;51.768;21.590;2022-12-07T05:21:20;99193.56;;;0.60;100.00
51528;BME280;37612;51.768;21.590;2022-12-07T05:25:21;99192.71;;;0.63;100.00
51528;BME280;37612;51.768;21.590;2022-12-07T05:29:22;99190.73;;;0.62;100.00
51528;BME280;37612;51.768;21.590;2022-12-07T05:33:24;99187.83;;;0.60;100.00
51528;BME280;37612;51.768;21.590;2022-12-07T05:37:25;99188.10;;;0.60;100.00
51528;BME280;37612;51.768;21.590;2022-12-07T05:41:26;99193.06;;;0.64;100.00
51528;BME280;37612;51.768;21.590;2022-12-07T05:45:46;99194.21;;;0.63;100.00
51528;BME280;37612;51.768;21.590;2022-12-07T05:49:47;99190.86;;;0.61;100.00
51528;BME280;37612;51.768;21.590;2022-12-07T05:53:48;99193.23;;;0.60;100.00
51528;BME280;37612;51.768;21.590;2022-12-07T05:57:49;99197.46;;;0.61;100.00
51528;BME280;37612;51.768;21.590;2022-12-07T06:02:13;99195.74;;;0.60;100.00
51528;BME280;37612;51.768;21.590;2022-12-07T06:06:15;99192.84;;;0.58;100.00
51528;BME280;37612;51.768;21.590;2022-12-07T06:10:16;99193.21;;;0.59;100.00
51528;BME280;37612;51.768;21.590;2022-12-07T06:14:17;99191.74;;;0.62;100.00
51528;BME280;37612;51.768;21.590;2022-12-07T06:18:18;99193.04;;;0.60;100.00
51528;BME280;37612;51.768;21.590;2022-12-07T06:22:19;99190.59;;;0.57;100.00
51528;BME280;37612;51.768;21.590;2022-12-07T06:26:20;99193.00;;;0.55;100.00
51528;BME280;37612;51.768;21.590;2022-12-07T06:30:22;99195.30;;;0.58;100.00
51528;BME280;37612;51.768;21.590;2022-12-07T06:34:23;99191.48;;;0.56;100.00
51528;BME280;37612;51.768;21.590;2022-12-07T06:38:25;99192.16;;;0.51;100.00
51528;BME280;37612;51.768;21.590;2022-12-07T06:42:26;99199.35;;;0.50;100.00
51528;BME280;37612;51.768;21.590;2022-12-07T06:46:27;99201.91;;;0.49;100.00
51528;BME280;37612;51.768;21.590;2022-12-07T06:50:28;99199.24;;;0.44;100.00
51528;BME280;37612;51.768;21.590;2022-12-07T06:54:30;99196.87;;;0.39;100.00
51528;BME280;37612;51.768;21.590;2022-12-07T06:58:31;99200.67;;;0.36;100.00
51528;BME280;37612;51.768;21.590;2022-12-07T07:02:32;99198.02;;;0.36;100.00
51528;BME280;37612;51.768;21.590;2022-12-07T07:06:33;99197.40;;;0.34;100.00
51528;BME280;37612;51.768;21.590;2022-12-07T07:10:35;99195.19;;;0.32;100.00
51528;BME280;37612;51.768;21.590;2022-12-07T07:14:36;99193.38;;;0.30;100.00
51528;BME280;37612;51.768;21.590;2022-12-07T07:18:38;99197.36;;;0.32;100.00
51528;BME280;37612;51.768;21.590;2022-12-07T07:22:39;99193.08;;;0.34;100.00
51528;BME280;37612;51.768;21.590;2022-12-07T07:26:40;99186.16;;;0.33;100.00
51528;BME280;37612;51.768;21.590;2022-12-07T07:30:42;99186.37;;;0.30;100.00
51528;BME280;37612;51.768;21.590;2022-12-07T07:34:43;99187.78;;;0.29;100.00
51528;BME280;37612;51.768;21.590;2022-12-07T07:38:44;99190.61;;;0.33;100.00
51528;BME280;37612;51.768;21.590;2022-12-07T07:42:53;99187.67;;;0.35;100.00
51528;BME280;37612;51.768;21.590;2022-12-07T07:46:54;99188.79;;;0.34;100.00
51528;BME280;37612;51.768;21.590;2022-12-07T07:50:55;99195.50;;;0.33;100.00
51528;BME280;37612;51.768;21.590;2022-12-07T07:54:56;99192.23;;;0.35;100.00
51528;BME280;37612;51.768;21.590;2022-12-07T07:58:58;99192.55;;;0.36;100.00
51528;BME280;37612;51.768;21.590;2022-12-07T08:02:59;99196.02;;;0.36;100.00
51528;BME280;37612;51.768;21.590;2022-12-07T08:07:00;99198.48;;;0.34;100.00
51528;BME280;37612;51.768;21.590;2022-12-07T08:11:05;99199.77;;;0.37;100.00
51528;BME280;37612;51.768;21.590;2022-12-07T08:15:06;99198.27;;;0.41;100.00
51528;BME280;37612;51.768;21.590;2022-12-07T08:19:07;99202.31;;;0.39;100.00
51528;BME280;37612;51.768;21.590;2022-12-07T08:23:09;99202.29;;;0.36;100.00
51528;BME280;37612;51.768;21.590;2022-12-07T08:27:11;99201.16;;;0.36;100.00
51528;BME280;37612;51.768;21.590;2022-12-07T08:31:17;99202.92;;;0.40;100.00
51528;BME280;37612;51.768;21.590;2022-12-07T08:35:20;99203.66;;;0.41;100.00
51528;BME280;37612;51.768;21.590;2022-12-07T08:39:21;99203.52;;;0.39;100.00
51528;BME280;37612;51.768;21.590;2022-12-07T08:43:23;99207.16;;;0.41;100.00
51528;BME280;37612;51.768;21.590;2022-12-07T08:47:25;99209.86;;;0.43;100.00
51528;BME280;37612;51.768;21.590;2022-12-07T08:51:26;99204.17;;;0.42;100.00
51528;BME280;37612;51.768;21.590;2022-12-07T08:55:28;99203.03;;;0.43;100.00
51528;BME280;37612;51.768;21.590;2022-12-07T08:59:30;99203.64;;;0.42;100.00
51528;BME280;37612;51.768;21.590;2022-12-07T09:03:31;99206.68;;;0.46;100.00
51528;BME280;37612;51.768;21.590;2022-12-07T09:07:33;99205.39;;;0.48;100.00
51528;BME280;37612;51.768;21.590;2022-12-07T09:11:35;99203.77;;;0.47;100.00
51528;BME280;37612;51.768;21.590;2022-12-07T09:15:36;99204.20;;;0.52;100.00
51528;BME280;37612;51.768;21.590;2022-12-07T09:19:37;99196.23;;;0.63;100.00
51528;BME280;37612;51.768;21.590;2022-12-07T09:23:41;99196.65;;;0.74;100.00
51528;BME280;37612;51.768;21.590;2022-12-07T09:27:42;99192.48;;;0.77;100.00
51528;BME280;37612;51.768;21.590;2022-12-07T09:31:43;99194.37;;;0.78;100.00
51528;BME280;37612;51.768;21.590;2022-12-07T09:35:47;99190.08;;;0.81;100.00
51528;BME280;37612;51.768;21.590;2022-12-07T09:39:49;99190.02;;;0.86;100.00
51528;BME280;37612;51.768;21.590;2022-12-07T09:43:53;99189.84;;;0.92;100.00
51528;BME280;37612;51.768;21.590;2022-12-07T09:47:58;99189.55;;;0.90;100.00
51528;BME280;37612;51.768;21.590;2022-12-07T09:52:03;99190.72;;;0.96;100.00
51528;BME280;37612;51.768;21.590;2022-12-07T09:56:18;99187.05;;;1.04;100.00
51528;BME280;37612;51.768;21.590;2022-12-07T10:00:22;99187.94;;;1.07;100.00
51528;BME280;37612;51.768;21.590;2022-12-07T10:04:25;99177.96;;;1.11;100.00
51528;BME280;37612;51.768;21.590;2022-12-07T10:08:26;99176.59;;;1.20;100.00
51528;BME280;37612;51.768;21.590;2022-12-07T10:12:27;99177.02;;;1.31;100.00
51528;BME280;37612;51.768;21.590;2022-12-07T10:16:35;99176.66;;;1.40;100.00
51528;BME280;37612;51.768;21.590;2022-12-07T10:20:37;99178.70;;;1.43;100.00
51528;BME280;37612;51.768;21.590;2022-12-07T10:24:43;99181.48;;;1.46;100.00
51528;BME280;37612;51.768;21.590;2022-12-07T10:28:48;99185.23;;;1.53;100.00
51528;BME280;37612;51.768;21.590;2022-12-07T10:32:51;99185.27;;;1.55;100.00
51528;BME280;37612;51.768;21.590;2022-12-07T10:36:53;99183.27;;;1.55;100.00
51528;BME280;37612;51.768;21.590;2022-12-07T10:41:12;99187.11;;;1.57;100.00
51528;BME280;37612;51.768;21.590;2022-12-07T10:45:16;99186.14;;;1.64;100.00
51528;BME280;37612;51.768;21.590;2022-12-07T10:54:00;99184.20;;;1.69;100.00
51528;BME280;37612;51.768;21.590;2022-12-07T11:06:41;99181.37;;;1.82;100.00
51528;BME280;37612;51.768;21.590;2022-12-07T11:11:09;99176.54;;;1.79;100.00
51528;BME280;37612;51.768;21.590;2022-12-07T11:15:20;99174.39;;;1.81;100.00
51528;BME280;37612;51.768;21.590;2022-12-07T11:24:06;99169.56;;;1.80;100.00
51528;BME280;37612;51.768;21.590;2022-12-07T11:29:06;99169.56;;;1.75;100.00
51528;BME280;37612;51.768;21.590;2022-12-07T11:32:59;99169.31;;;1.76;100.00
51528;BME280;37612;51.768;21.590;2022-12-07T11:37:12;99171.66;;;1.80;100.00
51528;BME280;37612;51.768;21.590;2022-12-07T11:41:22;99167.39;;;1.77;100.00
51528;BME280;37612;51.768;21.590;2022-12-07T11:45:31;99163.46;;;1.73;100.00
51528;BME280;37612;51.768;21.590;2022-12-07T11:49:42;99166.09;;;1.73;100.00
51528;BME280;37612;51.768;21.590;2022-12-07T11:53:49;99165.16;;;1.72;100.00
51528;BME280;37612;51.768;21.590;2022-12-07T11:58:04;99163.38;;;1.66;100.00
51528;BME280;37612;51.768;21.590;2022-12-07T12:02:16;99165.69;;;1.67;100.00
51528;BME280;37612;51.768;21.590;2022-12-07T12:06:20;99166.75;;;1.71;100.00
51528;BME280;37612;51.768;21.590;2022-12-07T12:10:41;99164.28;;;1.72;100.00
51528;BME280;37612;51.768;21.590;2022-12-07T12:15:02;99163.23;;;1.71;100.00
51528;BME280;37612;51.768;21.590;2022-12-07T12:27:47;99160.33;;;1.69;100.00
51528;BME280;37612;51.768;21.590;2022-12-07T12:32:23;99157.80;;;1.67;100.00
51528;BME280;37612;51.768;21.590;2022-12-07T12:40:39;99153.63;;;1.62;100.00
51528;BME280;37612;51.768;21.590;2022-12-07T12:44:43;99147.51;;;1.55;100.00
51528;BME280;37612;51.768;21.590;2022-12-07T12:53:20;99143.13;;;1.50;100.00
51528;BME280;37612;51.768;21.590;2022-12-07T12:57:32;99146.83;;;1.48;100.00
51528;BME280;37612;51.768;21.590;2022-12-07T13:01:40;99150.23;;;1.44;100.00
51528;BME280;37612;51.768;21.590;2022-12-07T13:05:41;99143.67;;;1.42;100.00
51528;BME280;37612;51.768;21.590;2022-12-07T13:09:44;99139.39;;;1.41;100.00
51528;BME280;37612;51.768;21.590;2022-12-07T13:13:46;99140.90;;;1.39;100.00
51528;BME280;37612;51.768;21.590;2022-12-07T13:21:54;99143.20;;;1.29;100.00
51528;BME280;37612;51.768;21.590;2022-12-07T13:30:19;99144.64;;;1.28;100.00
51528;BME280;37612;51.768;21.590;2022-12-07T13:38:34;99143.57;;;1.24;100.00
51528;BME280;37612;51.768;21.590;2022-12-07T13:42:37;99141.21;;;1.25;100.00
51528;BME280;37612;51.768;21.590;2022-12-07T13:46:57;99141.27;;;1.22;100.00
51528;BME280;37612;51.768;21.590;2022-12-07T13:51:02;99139.99;;;1.20;100.00
51528;BME280;37612;51.768;21.590;2022-12-07T13:59:13;99139.25;;;1.22;100.00
51528;BME280;37612;51.768;21.590;2022-12-07T14:07:26;99140.64;;;1.20;100.00
51528;BME280;37612;51.768;21.590;2022-12-07T14:11:29;99141.67;;;1.21;100.00
51528;BME280;37612;51.768;21.590;2022-12-07T14:15:34;99144.14;;;1.22;100.00
51528;BME280;37612;51.768;21.590;2022-12-07T14:19:45;99145.39;;;1.23;100.00
51528;BME280;37612;51.768;21.590;2022-12-07T14:24:04;99148.84;;;1.22;100.00
51528;BME280;37612;51.768;21.590;2022-12-07T14:28:23;99146.57;;;1.21;100.00
51528;BME280;37612;51.768;21.590;2022-12-07T14:32:27;99146.55;;;1.25;100.00
51528;BME280;37612;51.768;21.590;2022-12-07T14:36:29;99147.96;;;1.27;100.00
51528;BME280;37612;51.768;21.590;2022-12-07T14:40:32;99155.61;;;1.24;100.00
51528;BME280;37612;51.768;21.590;2022-12-07T14:44:35;99150.02;;;1.27;100.00
51528;BME280;37612;51.768;21.590;2022-12-07T14:48:51;99143.30;;;1.21;100.00
51528;BME280;37612;51.768;21.590;2022-12-07T14:52:56;99148.11;;;1.14;100.00
51528;BME280;37612;51.768;21.590;2022-12-07T14:57:00;99155.02;;;1.14;100.00
51528;BME280;37612;51.768;21.590;2022-12-07T15:01:01;99156.03;;;1.16;100.00
51528;BME280;37612;51.768;21.590;2022-12-07T15:05:04;99159.42;;;1.15;100.00
51528;BME280;37612;51.768;21.590;2022-12-07T15:09:05;99156.54;;;1.10;100.00
51528;BME280;37612;51.768;21.590;2022-12-07T15:13:07;99159.58;;;1.08;100.00
51528;BME280;37612;51.768;21.590;2022-12-07T15:17:28;99153.89;;;1.07;100.00
51528;BME280;37612;51.768;21.590;2022-12-07T15:21:33;99151.91;;;1.03;100.00
51528;BME280;37612;51.768;21.590;2022-12-07T15:25:40;99155.70;;;0.98;100.00
51528;BME280;37612;51.768;21.590;2022-12-07T15:29:42;99153.68;;;0.98;100.00
51528;BME280;37612;51.768;21.590;2022-12-07T15:33:44;99151.87;;;0.94;100.00
51528;BME280;37612;51.768;21.590;2022-12-07T15:37:46;99146.36;;;0.87;100.00
51528;BME280;37612;51.768;21.590;2022-12-07T15:41:47;99143.91;;;0.86;100.00
51528;BME280;37612;51.768;21.590;2022-12-07T15:45:49;99144.15;;;0.85;100.00
51528;BME280;37612;51.768;21.590;2022-12-07T15:49:51;99147.79;;;0.85;100.00
51528;BME280;37612;51.768;21.590;2022-12-07T15:53:52;99149.61;;;0.83;100.00
51528;BME280;37612;51.768;21.590;2022-12-07T15:57:54;99147.21;;;0.78;100.00
51528;BME280;37612;51.768;21.590;2022-12-07T16:01:55;99154.96;;;0.78;100.00
51528;BME280;37612;51.768;21.590;2022-12-07T16:05:56;99146.80;;;0.80;100.00
51528;BME280;37612;51.768;21.590;2022-12-07T16:10:11;99152.59;;;0.77;100.00
51528;BME280;37612;51.768;21.590;2022-12-07T16:14:12;99148.80;;;0.74;100.00
51528;BME280;37612;51.768;21.590;2022-12-07T16:18:16;99143.70;;;0.76;100.00
51528;BME280;37612;51.768;21.590;2022-12-07T16:22:34;99139.69;;;0.79;100.00
51528;BME280;37612;51.768;21.590;2022-12-07T16:26:36;99142.88;;;0.79;100.00
51528;BME280;37612;51.768;21.590;2022-12-07T16:31:17;99141.10;;;0.81;100.00
51528;BME280;37612;51.768;21.590;2022-12-07T16:35:22;99140.05;;;0.86;100.00
51528;BME280;37612;51.768;21.590;2022-12-07T16:39:24;99138.71;;;0.89;100.00
51528;BME280;37612;51.768;21.590;2022-12-07T16:43:31;99140.79;;;0.88;100.00
51528;BME280;37612;51.768;21.590;2022-12-07T16:47:41;99140.51;;;0.85;100.00
51528;BME280;37612;51.768;21.590;2022-12-07T16:52:07;99138.98;;;0.85;100.00
51528;BME280;37612;51.768;21.590;2022-12-07T16:56:48;99138.85;;;0.88;100.00
51528;BME280;37612;51.768;21.590;2022-12-07T17:00:52;99137.42;;;0.88;100.00
51528;BME280;37612;51.768;21.590;2022-12-07T17:04:58;99132.80;;;0.83;100.00
51528;BME280;37612;51.768;21.590;2022-12-07T17:09:05;99129.82;;;0.78;100.00
51528;BME280;37612;51.768;21.590;2022-12-07T17:13:15;99138.33;;;0.71;100.00
51528;BME280;37612;51.768;21.590;2022-12-07T17:17:38;99142.16;;;0.61;100.00
51528;BME280;37612;51.768;21.590;2022-12-07T17:21:41;99138.20;;;0.46;100.00
51528;BME280;37612;51.768;21.590;2022-12-07T17:25:47;99143.48;;;0.34;100.00
51528;BME280;37612;51.768;21.590;2022-12-07T17:29:50;99137.95;;;0.29;100.00
51528;BME280;37612;51.768;21.590;2022-12-07T17:33:52;99144.02;;;0.25;100.00
51528;BME280;37612;51.768;21.590;2022-12-07T17:37:53;99144.68;;;0.21;100.00
51528;BME280;37612;51.768;21.590;2022-12-07T17:41:56;99148.61;;;0.25;100.00
51528;BME280;37612;51.768;21.590;2022-12-07T17:46:15;99150.06;;;0.32;100.00
51528;BME280;37612;51.768;21.590;2022-12-07T17:50:17;99150.74;;;0.38;100.00
51528;BME280;37612;51.768;21.590;2022-12-07T17:54:38;99148.95;;;0.40;100.00
51528;BME280;37612;51.768;21.590;2022-12-07T17:58:39;99153.89;;;0.41;100.00
51528;BME280;37612;51.768;21.590;2022-12-07T18:02:41;99154.04;;;0.44;100.00
51528;BME280;37612;51.768;21.590;2022-12-07T18:06:42;99150.89;;;0.47;100.00
51528;BME280;37612;51.768;21.590;2022-12-07T18:10:43;99154.40;;;0.47;100.00
51528;BME280;37612;51.768;21.590;2022-12-07T18:14:44;99157.96;;;0.46;100.00
51528;BME280;37612;51.768;21.590;2022-12-07T18:18:46;99151.24;;;0.51;100.00
51528;BME280;37612;51.768;21.590;2022-12-07T18:22:48;99153.94;;;0.54;100.00
51528;BME280;37612;51.768;21.590;2022-12-07T18:26:49;99152.30;;;0.54;100.00
51528;BME280;37612;51.768;21.590;2022-12-07T18:30:52;99152.69;;;0.54;100.00
51528;BME280;37612;51.768;21.590;2022-12-07T18:34:54;99149.24;;;0.61;100.00
51528;BME280;37612;51.768;21.590;2022-12-07T18:38:55;99153.35;;;0.64;100.00
51528;BME280;37612;51.768;21.590;2022-12-07T18:42:56;99148.50;;;0.65;100.00
51528;BME280;37612;51.768;21.590;2022-12-07T18:46:58;99147.72;;;0.68;100.00
51528;BME280;37612;51.768;21.590;2022-12-07T18:51:02;99152.07;;;0.73;100.00
51528;BME280;37612;51.768;21.590;2022-12-07T18:55:04;99153.31;;;0.76;100.00
51528;BME280;37612;51.768;21.590;2022-12-07T18:59:05;99152.63;;;0.76;100.00
51528;BME280;37612;51.768;21.590;2022-12-07T19:03:26;99156.38;;;0.79;100.00
51528;BME280;37612;51.768;21.590;2022-12-07T19:07:27;99155.86;;;0.84;100.00
51528;BME280;37612;51.768;21.590;2022-12-07T19:11:30;99151.51;;;0.85;100.00
51528;BME280;37612;51.768;21.590;2022-12-07T19:15:51;99154.86;;;0.85;100.00
51528;BME280;37612;51.768;21.590;2022-12-07T19:19:52;99160.23;;;0.89;100.00
51528;BME280;37612;51.768;21.590;2022-12-07T19:23:53;99158.91;;;0.94;100.00
51528;BME280;37612;51.768;21.590;2022-12-07T19:27:55;99158.45;;;0.95;100.00
51528;BME280;37612;51.768;21.590;2022-12-07T19:32:00;99160.23;;;0.96;100.00
51528;BME280;37612;51.768;21.590;2022-12-07T19:36:01;99162.89;;;1.00;100.00
51528;BME280;37612;51.768;21.590;2022-12-07T19:40:04;99161.63;;;1.03;100.00
51528;BME280;37612;51.768;21.590;2022-12-07T19:44:19;99159.83;;;1.00;100.00
51528;BME280;37612;51.768;21.590;2022-12-07T19:48:21;99159.85;;;1.01;100.00
51528;BME280;37612;51.768;21.590;2022-12-07T19:52:23;99166.20;;;1.02;100.00
51528;BME280;37612;51.768;21.590;2022-12-07T19:56:26;99168.80;;;0.99;100.00
51528;BME280;37612;51.768;21.590;2022-12-07T20:00:28;99170.66;;;0.97;100.00
51528;BME280;37612;51.768;21.590;2022-12-07T20:04:31;99178.55;;;0.95;100.00
51528;BME280;37612;51.768;21.590;2022-12-07T20:08:35;99186.09;;;0.91;100.00
51528;BME280;37612;51.768;21.590;2022-12-07T20:12:36;99193.27;;;0.86;100.00
51528;BME280;37612;51.768;21.590;2022-12-07T20:16:56;99195.30;;;0.81;100.00
51528;BME280;37612;51.768;21.590;2022-12-07T20:20:58;99206.55;;;0.75;100.00
51528;BME280;37612;51.768;21.590;2022-12-07T20:25:00;99216.30;;;0.66;100.00
51528;BME280;37612;51.768;21.590;2022-12-07T20:29:07;99227.50;;;0.63;100.00
51528;BME280;37612;51.768;21.590;2022-12-07T20:33:09;99233.36;;;0.66;100.00
51528;BME280;37612;51.768;21.590;2022-12-07T20:37:10;99239.13;;;0.66;100.00
51528;BME280;37612;51.768;21.590;2022-12-07T20:41:12;99242.29;;;0.66;100.00
51528;BME280;37612;51.768;21.590;2022-12-07T20:45:32;99246.72;;;0.70;100.00
51528;BME280;37612;51.768;21.590;2022-12-07T20:49:34;99248.91;;;0.73;100.00
51528;BME280;37612;51.768;21.590;2022-12-07T20:53:35;99253.42;;;0.70;100.00
51528;BME280;37612;51.768;21.590;2022-12-07T20:57:36;99257.61;;;0.61;100.00
51528;BME280;37612;51.768;21.590;2022-12-07T21:01:38;99258.38;;;0.52;100.00
51528;BME280;37612;51.768;21.590;2022-12-07T21:05:41;99258.88;;;0.46;100.00
51528;BME280;37612;51.768;21.590;2022-12-07T21:09:44;99262.31;;;0.36;100.00
51528;BME280;37612;51.768;21.590;2022-12-07T21:13:46;99261.37;;;0.23;100.00
51528;BME280;37612;51.768;21.590;2022-12-07T21:17:47;99267.66;;;0.12;100.00
51528;BME280;37612;51.768;21.590;2022-12-07T21:21:50;99276.46;;;0.05;100.00
51528;BME280;37612;51.768;21.590;2022-12-07T21:25:51;99279.10;;;-0.04;100.00
51528;BME280;37612;51.768;21.590;2022-12-07T21:29:52;99283.69;;;-0.13;100.00
51528;BME280;37612;51.768;21.590;2022-12-07T21:33:54;99286.64;;;-0.22;100.00
51528;BME280;37612;51.768;21.590;2022-12-07T21:37:55;99282.52;;;-0.28;100.00
51528;BME280;37612;51.768;21.590;2022-12-07T21:41:56;99280.73;;;-0.32;100.00
51528;BME280;37612;51.768;21.590;2022-12-07T21:45:58;99277.88;;;-0.39;100.00
51528;BME280;37612;51.768;21.590;2022-12-07T21:49:59;99278.74;;;-0.48;100.00
51528;BME280;37612;51.768;21.590;2022-12-07T21:54:01;99276.45;;;-0.56;100.00
51528;BME280;37612;51.768;21.590;2022-12-07T21:58:03;99273.21;;;-0.58;100.00
51528;BME280;37612;51.768;21.590;2022-12-07T22:02:04;99272.75;;;-0.60;100.00
51528;BME280;37612;51.768;21.590;2022-12-07T22:06:05;99269.98;;;-0.66;100.00
51528;BME280;37612;51.768;21.590;2022-12-07T22:10:07;99274.29;;;-0.72;100.00
51528;BME280;37612;51.768;21.590;2022-12-07T22:14:08;99276.70;;;-0.74;100.00
51528;BME280;37612;51.768;21.590;2022-12-07T22:18:29;99277.21;;;-0.74;100.00
51528;BME280;37612;51.768;21.590;2022-12-07T22:22:30;99282.08;;;-0.78;100.00
51528;BME280;37612;51.768;21.590;2022-12-07T22:26:31;99283.90;;;-0.84;100.00
51528;BME280;37612;51.768;21.590;2022-12-07T22:30:32;99287.52;;;-0.85;100.00
51528;BME280;37612;51.768;21.590;2022-12-07T22:34:34;99290.39;;;-0.84;100.00